Wilson Lahn — 8PUO — position and weather

sailwx.info

Track history (hours):
 
Tides and Currents Weather Stations Pressure Air Temp Water Temp Dewpoint Dewpoint Depression Visibility Wind Speed Wind Dir Waves Ship Positions

Wilson Lahn

Last reported at 2016-Jul-29 01:31 UTC. Time now 2016-Jul-29 02:06 UTC.
Position N 52°24' E 004°52'.

Length 83 m; draft 3 m.

Type: Cargo ship. MMSI: 314259000.

Date/timePositionNaut miles runAvg speedWind from/ knotsBaromVisibWave heightAir tempDewpointWater temp
2016-Jul-29 01:31N 52°24' E 004°52'0 0.0
2016-Jul-29 00:31N 52°24' E 004°52'0 0.0
2016-Jul-28 23:28N 52°24' E 004°52'0 0.0
2016-Jul-28 22:31N 52°24' E 004°52'0 0.0
2016-Jul-28 21:31N 52°24' E 004°52'0 0.0
2016-Jul-28 20:31N 52°24' E 004°52'0 0.0
2016-Jul-28 19:31N 52°24' E 004°52'0 0.0
2016-Jul-28 18:31N 52°24' E 004°52'0 0.0
2016-Jul-28 17:31N 52°24' E 004°52'0 0.0
2016-Jul-28 16:31N 52°24' E 004°52'0 0.0
2016-Jul-28 15:31N 52°24' E 004°52'0 0.0
2016-Jul-28 14:31N 52°24' E 004°52'0 0.0
2016-Jul-28 13:31N 52°24' E 004°52'0 0.0
2016-Jul-28 12:28N 52°24' E 004°52'0 0.0
2016-Jul-28 11:28N 52°24' E 004°52'0 0.0
2016-Jul-28 10:33N 52°24' E 004°52'0 0.0
2016-Jul-28 09:33N 52°24' E 004°52'0 0.0
2016-Jul-28 08:33N 52°24' E 004°52'7 7.3
2016-Jul-28 07:34N 52°27' E 004°41'5 4.9
2016-Jul-28 06:34N 52°28' E 004°33'1211.6
2016-Jul-28 05:33N 52°29' E 004°14'1111.4
2016-Jul-28 04:33N 52°27' E 003°56'  
2016-Jul-25 20:20N 51°52' E 002°49'7 8.4
2016-Jul-25 19:33N 51°48' E 002°57'9 9.3
2016-Jul-25 18:33N 51°45' E 003°11'1111.1
2016-Jul-25 17:33N 51°37' E 003°22'1111.3
2016-Jul-25 16:34N 51°27' E 003°32'7 7.2
2016-Jul-25 15:34N 51°25' E 003°43'8 7.8
2016-Jul-25 14:34N 51°22' E 003°54'5 5.3
2016-Jul-25 13:33N 51°24' E 004°02'8 8.1
2016-Jul-25 12:33N 51°21' E 004°15'6 5.6
2016-Jul-25 11:34N 51°17' E 004°20'0 0.5
2016-Jul-25 10:33N 51°16' E 004°20'1 0.6
2016-Jul-25 09:34N 51°16' E 004°21'2 2.2
2016-Jul-25 08:34N 51°15' E 004°24'0 0.0
2016-Jul-25 07:34N 51°15' E 004°24'0 0.0
2016-Jul-25 06:33N 51°15' E 004°24'0 0.0
2016-Jul-25 05:33N 51°15' E 004°24'0 0.0
2016-Jul-25 04:33N 51°15' E 004°24'0 0.0
2016-Jul-25 03:33N 51°15' E 004°24'0 0.0
2016-Jul-25 02:33N 51°15' E 004°24'0 0.0
2016-Jul-25 01:33N 51°15' E 004°24'0 0.0
2016-Jul-25 00:33N 51°15' E 004°24'0 0.0
2016-Jul-24 23:33N 51°15' E 004°24'0 0.0
2016-Jul-24 22:33N 51°15' E 004°24'0 0.0
2016-Jul-24 21:33N 51°15' E 004°24'0 0.0
2016-Jul-24 20:33N 51°15' E 004°24'0 0.0
2016-Jul-24 19:33N 51°15' E 004°24'0 0.0
2016-Jul-24 18:30N 51°15' E 004°24'0 0.0
2016-Jul-24 17:33N 51°15' E 004°24'0 0.0
2016-Jul-24 16:33N 51°15' E 004°24'0 0.0
2016-Jul-24 15:33N 51°15' E 004°24'0 0.0
2016-Jul-24 14:33N 51°15' E 004°24'0 0.0
2016-Jul-24 13:33N 51°15' E 004°24'0 0.0
2016-Jul-24 12:33N 51°15' E 004°24'0 0.0
2016-Jul-24 11:33N 51°15' E 004°24'0 0.0
2016-Jul-24 10:33N 51°15' E 004°24'0 0.0
2016-Jul-24 09:33N 51°15' E 004°24'0 0.0
2016-Jul-24 08:33N 51°15' E 004°24'0 0.0
2016-Jul-24 07:33N 51°15' E 004°24'0 0.0
2016-Jul-24 06:33N 51°15' E 004°24'0 0.0
2016-Jul-24 05:30N 51°15' E 004°24'0 0.0
2016-Jul-24 04:33N 51°15' E 004°24'0 0.0
2016-Jul-24 03:30N 51°15' E 004°24'0 0.0
2016-Jul-24 02:33N 51°15' E 004°24'0 0.0
2016-Jul-24 01:33N 51°15' E 004°24'0 0.0
2016-Jul-24 00:33N 51°15' E 004°24'0 0.0
2016-Jul-23 23:33N 51°15' E 004°24'0 0.0
2016-Jul-23 22:33N 51°15' E 004°24'0 0.0
2016-Jul-23 21:33N 51°15' E 004°24'0 0.0
2016-Jul-23 20:33N 51°15' E 004°24'0 0.0
2016-Jul-23 19:33N 51°15' E 004°24'0 0.0
2016-Jul-23 18:33N 51°15' E 004°24'0 0.0
2016-Jul-23 17:33N 51°15' E 004°24'0 0.0
2016-Jul-23 16:30N 51°15' E 004°24'0 0.0
2016-Jul-23 15:33N 51°15' E 004°24'0 0.0
2016-Jul-23 14:33N 51°15' E 004°24'0 0.0
2016-Jul-23 13:33N 51°15' E 004°24'0 0.0
2016-Jul-23 12:33N 51°15' E 004°24'0 0.0
2016-Jul-23 11:33N 51°15' E 004°24'0 0.0
2016-Jul-23 10:33N 51°15' E 004°24'0 0.0
2016-Jul-23 09:33N 51°15' E 004°24'0 0.0
2016-Jul-23 08:33N 51°15' E 004°24'0 0.0
2016-Jul-23 07:33N 51°15' E 004°24'0 0.0
2016-Jul-23 06:33N 51°15' E 004°24'0 0.0
2016-Jul-23 04:33N 51°15' E 004°24'0 0.0
2016-Jul-23 03:33N 51°15' E 004°24'0 0.0
2016-Jul-23 02:33N 51°15' E 004°24'0 0.0
2016-Jul-23 01:33N 51°15' E 004°24'0 0.0
2016-Jul-23 00:33N 51°15' E 004°24'0 0.0
2016-Jul-22 23:33N 51°15' E 004°24'0 0.0
2016-Jul-22 22:33N 51°15' E 004°24'0 0.0
2016-Jul-22 21:33N 51°15' E 004°24'0 0.0
2016-Jul-22 20:33N 51°15' E 004°24'0 0.0
2016-Jul-22 19:30N 51°15' E 004°24'0 0.0
2016-Jul-22 18:33N 51°15' E 004°24'0 0.0
2016-Jul-22 17:33N 51°15' E 004°24'0 0.0
2016-Jul-22 16:33N 51°15' E 004°24'0 0.0
2016-Jul-22 15:33N 51°15' E 004°24'0 0.0
2016-Jul-22 14:33N 51°15' E 004°24'0 0.0
2016-Jul-22 13:33N 51°15' E 004°24'0 0.0
2016-Jul-22 12:33N 51°15' E 004°24'0 0.0
2016-Jul-22 11:33N 51°15' E 004°24'0 0.1
2016-Jul-22 10:33N 51°15' E 004°24'0 0.0
2016-Jul-22 09:33N 51°15' E 004°24'0 0.0
2016-Jul-22 08:33N 51°15' E 004°24'0 0.0
2016-Jul-22 07:33N 51°15' E 004°24'0 0.0
2016-Jul-22 05:33N 51°15' E 004°24'0 0.0
2016-Jul-22 04:33N 51°15' E 004°24'0 0.0
2016-Jul-22 03:30N 51°15' E 004°24'0 0.0
2016-Jul-22 02:33N 51°15' E 004°24'0 0.0
2016-Jul-22 01:33N 51°15' E 004°24'0 0.0
2016-Jul-22 00:33N 51°15' E 004°24'0 0.0
2016-Jul-21 23:33N 51°15' E 004°24'0 0.0
2016-Jul-21 22:33N 51°15' E 004°24'0 0.0
2016-Jul-21 21:33N 51°15' E 004°24'0 0.0
2016-Jul-21 20:33N 51°15' E 004°24'0 0.0
2016-Jul-21 19:33N 51°15' E 004°24'0 0.0
2016-Jul-21 18:33N 51°15' E 004°24'0 0.0
2016-Jul-21 17:33N 51°15' E 004°24'0 0.0
2016-Jul-21 16:33N 51°15' E 004°24'0 0.0
2016-Jul-21 15:33N 51°15' E 004°24'0 0.0
2016-Jul-21 14:33N 51°15' E 004°24'0 0.0
2016-Jul-21 13:33N 51°15' E 004°24'0 0.0
2016-Jul-21 12:33N 51°15' E 004°24'0 0.4
2016-Jul-21 11:34N 51°15' E 004°24'3 3.3
2016-Jul-21 10:33N 51°17' E 004°20'8 8.0
2016-Jul-21 09:33N 51°23' E 004°13'7 7.4
2016-Jul-21 08:33N 51°25' E 004°01'8 8.2
2016-Jul-21 07:33N 51°21' E 003°51'8 8.4
2016-Jul-21 06:34N 51°26' E 003°40'8 8.4
2016-Jul-21 05:33N 51°30' E 003°28'1110.7
2016-Jul-21 04:33N 51°39' E 003°19'9 9.1
2016-Jul-21 03:34N 51°48' E 003°15'7 6.8
2016-Jul-21 02:34N 51°54' E 003°18'7 6.5
2016-Jul-21 01:30N 52°01' E 003°20'6 6.3
2016-Jul-21 00:34N 52°07' E 003°21'6 6.0
2016-Jul-20 23:33N 52°12' E 003°17'64 8.7
2016-Jul-20 16:12N 52°48' E 001°51'5 8.4
2016-Jul-20 15:33N 52°51' E 001°43'8 7.9
2016-Jul-20 14:33N 52°55' E 001°31'8 8.1
2016-Jul-20 13:33N 52°58' E 001°19'9 8.4
2016-Jul-20 12:33N 53°01' E 001°06'8 8.3
2016-Jul-20 11:33N 53°07' E 000°57'10 9.8
2016-Jul-20 10:32N 53°14' E 000°44'10 9.8
2016-Jul-20 09:32N 53°23' E 000°38'1010.1
2016-Jul-20 08:33N 53°32' E 000°32'4 4.1
2016-Jul-20 07:33N 53°36' E 000°29'0 0.0
2016-Jul-20 06:33N 53°36' E 000°29'0 0.1
2016-Jul-20 05:33N 53°36' E 000°29'0 0.0
2016-Jul-20 04:30N 53°36' E 000°29'0 0.0
2016-Jul-20 02:18N 53°36' E 000°29'0 0.1
2016-Jul-20 01:24N 53°36' E 000°29'0 0.0
2016-Jul-20 00:33N 53°36' E 000°29'0 0.0
2016-Jul-19 23:24N 53°36' E 000°29'0 0.0
2016-Jul-19 22:25N 53°36' E 000°29'0 0.0
2016-Jul-19 21:25N 53°36' E 000°29'0 0.0
2016-Jul-19 20:21N 53°36' E 000°29'0 0.0
2016-Jul-19 19:33N 53°36' E 000°29'0 0.0
2016-Jul-19 13:18N 53°36' E 000°29'0 0.0
2016-Jul-19 12:30N 53°36' E 000°29'0 0.0
2016-Jul-19 11:27N 53°36' E 000°29'0 0.0
2016-Jul-19 10:30N 53°36' E 000°29'0 0.0
2016-Jul-19 09:33N 53°36' E 000°29'0 0.0
2016-Jul-19 08:30N 53°36' E 000°29'0 0.0
2016-Jul-19 07:30N 53°36' E 000°29'0 0.0
2016-Jul-19 04:27N 53°36' E 000°29'0 0.0
2016-Jul-19 03:27N 53°36' E 000°29'0 0.0
2016-Jul-19 02:33N 53°36' E 000°29'0 0.0
2016-Jul-19 01:33N 53°36' E 000°29'  
Track history (hours):
 
Tides and Currents Weather Stations Pressure Air Temp Water Temp Dewpoint Dewpoint Depression Visibility Wind Speed Wind Dir Waves Ship Positions

Wilson Lahn

Last reported at 2016-Jul-29 01:31 UTC. Time now 2016-Jul-29 02:06 UTC.
Position N 52°24' E 004°52'.

Length 83 m; draft 3 m.

Type: Cargo ship. MMSI: 314259000.

Date/timePositionNaut miles runAvg speedWind from/ knotsBaromVisibWave heightAir tempDewpointWater temp
2016-Jul-29 01:31N 52°24' E 004°52'0 0.0
2016-Jul-29 00:31N 52°24' E 004°52'0 0.0
2016-Jul-28 23:28N 52°24' E 004°52'0 0.0
2016-Jul-28 22:31N 52°24' E 004°52'0 0.0
2016-Jul-28 21:31N 52°24' E 004°52'0 0.0
2016-Jul-28 20:31N 52°24' E 004°52'0 0.0
2016-Jul-28 19:31N 52°24' E 004°52'0 0.0
2016-Jul-28 18:31N 52°24' E 004°52'0 0.0
2016-Jul-28 17:31N 52°24' E 004°52'0 0.0
2016-Jul-28 16:31N 52°24' E 004°52'0 0.0
2016-Jul-28 15:31N 52°24' E 004°52'0 0.0
2016-Jul-28 14:31N 52°24' E 004°52'0 0.0
2016-Jul-28 13:31N 52°24' E 004°52'0 0.0
2016-Jul-28 12:28N 52°24' E 004°52'0 0.0
2016-Jul-28 11:28N 52°24' E 004°52'0 0.0
2016-Jul-28 10:33N 52°24' E 004°52'0 0.0
2016-Jul-28 09:33N 52°24' E 004°52'0 0.0
2016-Jul-28 08:33N 52°24' E 004°52'7 7.3
2016-Jul-28 07:34N 52°27' E 004°41'5 4.9
2016-Jul-28 06:34N 52°28' E 004°33'1211.6
2016-Jul-28 05:33N 52°29' E 004°14'1111.4
2016-Jul-28 04:33N 52°27' E 003°56'  
2016-Jul-25 20:20N 51°52' E 002°49'7 8.4
2016-Jul-25 19:33N 51°48' E 002°57'9 9.3
2016-Jul-25 18:33N 51°45' E 003°11'1111.1
2016-Jul-25 17:33N 51°37' E 003°22'1111.3
2016-Jul-25 16:34N 51°27' E 003°32'7 7.2
2016-Jul-25 15:34N 51°25' E 003°43'8 7.8
2016-Jul-25 14:34N 51°22' E 003°54'5 5.3
2016-Jul-25 13:33N 51°24' E 004°02'8 8.1
2016-Jul-25 12:33N 51°21' E 004°15'6 5.6
2016-Jul-25 11:34N 51°17' E 004°20'0 0.5
2016-Jul-25 10:33N 51°16' E 004°20'1 0.6
2016-Jul-25 09:34N 51°16' E 004°21'2 2.2
2016-Jul-25 08:34N 51°15' E 004°24'0 0.0
2016-Jul-25 07:34N 51°15' E 004°24'0 0.0
2016-Jul-25 06:33N 51°15' E 004°24'0 0.0
2016-Jul-25 05:33N 51°15' E 004°24'0 0.0
2016-Jul-25 04:33N 51°15' E 004°24'0 0.0
2016-Jul-25 03:33N 51°15' E 004°24'0 0.0
2016-Jul-25 02:33N 51°15' E 004°24'0 0.0
2016-Jul-25 01:33N 51°15' E 004°24'0 0.0
2016-Jul-25 00:33N 51°15' E 004°24'0 0.0
2016-Jul-24 23:33N 51°15' E 004°24'0 0.0
2016-Jul-24 22:33N 51°15' E 004°24'0 0.0
2016-Jul-24 21:33N 51°15' E 004°24'0 0.0
2016-Jul-24 20:33N 51°15' E 004°24'0 0.0
2016-Jul-24 19:33N 51°15' E 004°24'0 0.0
2016-Jul-24 18:30N 51°15' E 004°24'0 0.0
2016-Jul-24 17:33N 51°15' E 004°24'0 0.0
2016-Jul-24 16:33N 51°15' E 004°24'0 0.0
2016-Jul-24 15:33N 51°15' E 004°24'0 0.0
2016-Jul-24 14:33N 51°15' E 004°24'0 0.0
2016-Jul-24 13:33N 51°15' E 004°24'0 0.0
2016-Jul-24 12:33N 51°15' E 004°24'0 0.0
2016-Jul-24 11:33N 51°15' E 004°24'0 0.0
2016-Jul-24 10:33N 51°15' E 004°24'0 0.0
2016-Jul-24 09:33N 51°15' E 004°24'0 0.0
2016-Jul-24 08:33N 51°15' E 004°24'0 0.0
2016-Jul-24 07:33N 51°15' E 004°24'0 0.0
2016-Jul-24 06:33N 51°15' E 004°24'0 0.0
2016-Jul-24 05:30N 51°15' E 004°24'0 0.0
2016-Jul-24 04:33N 51°15' E 004°24'0 0.0
2016-Jul-24 03:30N 51°15' E 004°24'0 0.0
2016-Jul-24 02:33N 51°15' E 004°24'0 0.0
2016-Jul-24 01:33N 51°15' E 004°24'0 0.0
2016-Jul-24 00:33N 51°15' E 004°24'0 0.0
2016-Jul-23 23:33N 51°15' E 004°24'0 0.0
2016-Jul-23 22:33N 51°15' E 004°24'0 0.0
2016-Jul-23 21:33N 51°15' E 004°24'0 0.0
2016-Jul-23 20:33N 51°15' E 004°24'0 0.0
2016-Jul-23 19:33N 51°15' E 004°24'0 0.0
2016-Jul-23 18:33N 51°15' E 004°24'0 0.0
2016-Jul-23 17:33N 51°15' E 004°24'0 0.0
2016-Jul-23 16:30N 51°15' E 004°24'0 0.0
2016-Jul-23 15:33N 51°15' E 004°24'0 0.0
2016-Jul-23 14:33N 51°15' E 004°24'0 0.0
2016-Jul-23 13:33N 51°15' E 004°24'0 0.0
2016-Jul-23 12:33N 51°15' E 004°24'0 0.0
2016-Jul-23 11:33N 51°15' E 004°24'0 0.0
2016-Jul-23 10:33N 51°15' E 004°24'0 0.0
2016-Jul-23 09:33N 51°15' E 004°24'0 0.0
2016-Jul-23 08:33N 51°15' E 004°24'0 0.0
2016-Jul-23 07:33N 51°15' E 004°24'0 0.0
2016-Jul-23 06:33N 51°15' E 004°24'0 0.0
2016-Jul-23 04:33N 51°15' E 004°24'0 0.0
2016-Jul-23 03:33N 51°15' E 004°24'0 0.0
2016-Jul-23 02:33N 51°15' E 004°24'0 0.0
2016-Jul-23 01:33N 51°15' E 004°24'0 0.0
2016-Jul-23 00:33N 51°15' E 004°24'0 0.0
2016-Jul-22 23:33N 51°15' E 004°24'0 0.0
2016-Jul-22 22:33N 51°15' E 004°24'0 0.0
2016-Jul-22 21:33N 51°15' E 004°24'0 0.0
2016-Jul-22 20:33N 51°15' E 004°24'0 0.0
2016-Jul-22 19:30N 51°15' E 004°24'0 0.0
2016-Jul-22 18:33N 51°15' E 004°24'0 0.0
2016-Jul-22 17:33N 51°15' E 004°24'0 0.0
2016-Jul-22 16:33N 51°15' E 004°24'0 0.0
2016-Jul-22 15:33N 51°15' E 004°24'0 0.0
2016-Jul-22 14:33N 51°15' E 004°24'0 0.0
2016-Jul-22 13:33N 51°15' E 004°24'0 0.0
2016-Jul-22 12:33N 51°15' E 004°24'0 0.0
2016-Jul-22 11:33N 51°15' E 004°24'0 0.1
2016-Jul-22 10:33N 51°15' E 004°24'0 0.0
2016-Jul-22 09:33N 51°15' E 004°24'0 0.0
2016-Jul-22 08:33N 51°15' E 004°24'0 0.0
2016-Jul-22 07:33N 51°15' E 004°24'0 0.0
2016-Jul-22 05:33N 51°15' E 004°24'0 0.0
2016-Jul-22 04:33N 51°15' E 004°24'0 0.0
2016-Jul-22 03:30N 51°15' E 004°24'0 0.0
2016-Jul-22 02:33N 51°15' E 004°24'0 0.0
2016-Jul-22 01:33N 51°15' E 004°24'0 0.0
2016-Jul-22 00:33N 51°15' E 004°24'0 0.0
2016-Jul-21 23:33N 51°15' E 004°24'0 0.0
2016-Jul-21 22:33N 51°15' E 004°24'0 0.0
2016-Jul-21 21:33N 51°15' E 004°24'0 0.0
2016-Jul-21 20:33N 51°15' E 004°24'0 0.0
2016-Jul-21 19:33N 51°15' E 004°24'0 0.0
2016-Jul-21 18:33N 51°15' E 004°24'0 0.0
2016-Jul-21 17:33N 51°15' E 004°24'0 0.0
2016-Jul-21 16:33N 51°15' E 004°24'0 0.0
2016-Jul-21 15:33N 51°15' E 004°24'0 0.0
2016-Jul-21 14:33N 51°15' E 004°24'0 0.0
2016-Jul-21 13:33N 51°15' E 004°24'0 0.0
2016-Jul-21 12:33N 51°15' E 004°24'0 0.4
2016-Jul-21 11:34N 51°15' E 004°24'3 3.3
2016-Jul-21 10:33N 51°17' E 004°20'8 8.0
2016-Jul-21 09:33N 51°23' E 004°13'7 7.4
2016-Jul-21 08:33N 51°25' E 004°01'8 8.2
2016-Jul-21 07:33N 51°21' E 003°51'8 8.4
2016-Jul-21 06:34N 51°26' E 003°40'8 8.4
2016-Jul-21 05:33N 51°30' E 003°28'1110.7
2016-Jul-21 04:33N 51°39' E 003°19'9 9.1
2016-Jul-21 03:34N 51°48' E 003°15'7 6.8
2016-Jul-21 02:34N 51°54' E 003°18'7 6.5
2016-Jul-21 01:30N 52°01' E 003°20'6 6.3
2016-Jul-21 00:34N 52°07' E 003°21'6 6.0
2016-Jul-20 23:33N 52°12' E 003°17'64 8.7
2016-Jul-20 16:12N 52°48' E 001°51'5 8.4
2016-Jul-20 15:33N 52°51' E 001°43'8 7.9
2016-Jul-20 14:33N 52°55' E 001°31'8 8.1
2016-Jul-20 13:33N 52°58' E 001°19'9 8.4
2016-Jul-20 12:33N 53°01' E 001°06'8 8.3
2016-Jul-20 11:33N 53°07' E 000°57'10 9.8
2016-Jul-20 10:32N 53°14' E 000°44'10 9.8
2016-Jul-20 09:32N 53°23' E 000°38'1010.1
2016-Jul-20 08:33N 53°32' E 000°32'4 4.1
2016-Jul-20 07:33N 53°36' E 000°29'0 0.0
2016-Jul-20 06:33N 53°36' E 000°29'0 0.1
2016-Jul-20 05:33N 53°36' E 000°29'0 0.0
2016-Jul-20 04:30N 53°36' E 000°29'0 0.0
2016-Jul-20 02:18N 53°36' E 000°29'0 0.1
2016-Jul-20 01:24N 53°36' E 000°29'0 0.0
2016-Jul-20 00:33N 53°36' E 000°29'0 0.0
2016-Jul-19 23:24N 53°36' E 000°29'0 0.0
2016-Jul-19 22:25N 53°36' E 000°29'0 0.0
2016-Jul-19 21:25N 53°36' E 000°29'0 0.0
2016-Jul-19 20:21N 53°36' E 000°29'0 0.0
2016-Jul-19 19:33N 53°36' E 000°29'0 0.0
2016-Jul-19 13:18N 53°36' E 000°29'0 0.0
2016-Jul-19 12:30N 53°36' E 000°29'0 0.0
2016-Jul-19 11:27N 53°36' E 000°29'0 0.0
2016-Jul-19 10:30N 53°36' E 000°29'0 0.0
2016-Jul-19 09:33N 53°36' E 000°29'0 0.0
2016-Jul-19 08:30N 53°36' E 000°29'0 0.0
2016-Jul-19 07:30N 53°36' E 000°29'0 0.0
2016-Jul-19 04:27N 53°36' E 000°29'0 0.0
2016-Jul-19 03:27N 53°36' E 000°29'0 0.0
2016-Jul-19 02:33N 53°36' E 000°29'0 0.0
2016-Jul-19 01:33N 53°36' E 000°29'  

Dump ship's entire track history